createdAt,value
2022-10-14T00:00:49.157Z,107.73
2022-10-14T00:10:53.891Z,103.67
2022-10-14T00:20:57.490Z,103.03
2022-10-14T00:31:03.316Z,105.73
2022-10-14T00:41:07.561Z,101.83
2022-10-14T00:51:15.170Z,101.60
2022-10-14T01:01:18.557Z,102.43
2022-10-14T01:11:32.604Z,103.23
2022-10-14T01:21:43.584Z,103.07
2022-10-14T01:32:00.394Z,104.80
2022-10-14T01:42:09.820Z,105.07
2022-10-14T01:52:20.188Z,102.53
2022-10-14T02:02:24.671Z,105.30
2022-10-14T02:12:39.110Z,104.10
2022-10-14T02:22:46.590Z,102.23
2022-10-14T02:32:52.647Z,101.77
2022-10-14T02:42:58.190Z,101.47
2022-10-14T02:53:03.570Z,104.93
2022-10-14T03:03:06.992Z,106.67
2022-10-14T03:13:11.742Z,103.83
2022-10-14T03:23:19.588Z,102.17
2022-10-14T03:33:29.814Z,103.77
2022-10-14T03:43:49.435Z,100.80
2022-10-14T03:53:54.893Z,102.17
2022-10-14T04:04:04.103Z,106.27
2022-10-14T04:14:10.742Z,104.20
2022-10-14T04:24:22.307Z,104.57
2022-10-14T04:34:35.982Z,107.13
2022-10-14T04:44:39.477Z,103.90
2022-10-14T04:54:44.428Z,104.63
2022-10-14T05:04:47.724Z,104.00
2022-10-14T05:14:53.114Z,101.20
2022-10-14T05:25:03.210Z,105.73
2022-10-14T05:35:09.470Z,109.10
2022-10-14T05:45:16.137Z,104.80
2022-10-14T05:55:27.786Z,108.97
2022-10-14T06:05:38.439Z,108.17
2022-10-14T06:15:43.319Z,105.47
2022-10-14T06:25:47.431Z,108.83
2022-10-14T06:35:52.019Z,112.53
2022-10-14T06:45:58.404Z,107.50
2022-10-14T06:56:06.429Z,112.83
2022-10-14T07:06:10.397Z,110.33
2022-10-14T07:16:15.078Z,114.87
2022-10-14T07:26:18.625Z,118.30
2022-10-14T07:36:23.392Z,120.00
2022-10-14T07:46:32.017Z,124.10
2022-10-14T07:56:37.081Z,131.13
2022-10-14T08:06:40.434Z,122.63
2022-10-14T08:16:45.263Z,129.17
2022-10-14T08:26:54.476Z,129.53
2022-10-14T08:37:00.315Z,133.23
2022-10-14T08:47:07.162Z,147.10
2022-10-14T08:57:18.062Z,129.70
2022-10-14T09:07:22.257Z,125.03
2022-10-14T09:17:35.395Z,120.60
2022-10-14T09:27:41.318Z,120.30
2022-10-14T09:37:45.913Z,121.27
2022-10-14T09:47:56.375Z,122.53
2022-10-14T09:58:09.456Z,123.13
2022-10-14T10:08:21.876Z,123.17
2022-10-14T10:18:26.792Z,122.60
2022-10-14T10:28:32.141Z,125.80
2022-10-14T10:38:49.736Z,128.83
2022-10-14T10:49:03.753Z,123.00
2022-10-14T10:59:33.649Z,117.37
2022-10-14T11:10:02.346Z,115.57
2022-10-14T11:20:22.792Z,113.50
2022-10-14T11:30:38.176Z,120.57
2022-10-14T11:40:54.911Z,115.23
2022-10-14T11:51:12.559Z,113.27
2022-10-14T12:01:20.527Z,114.27
2022-10-14T12:11:31.729Z,109.40
2022-10-14T12:21:49.716Z,108.27
2022-10-14T12:32:22.050Z,108.60
2022-10-14T12:42:27.000Z,106.80
2022-10-14T12:52:33.714Z,103.93
2022-10-14T13:02:45.605Z,112.87
2022-10-14T13:12:48.902Z,119.17
2022-10-14T13:22:54.317Z,107.87
2022-10-14T13:33:01.831Z,111.33
2022-10-14T13:43:17.694Z,118.90
2022-10-14T13:53:23.915Z,119.73
2022-10-14T14:03:33.305Z,130.10
2022-10-14T14:13:54.474Z,134.97
2022-10-14T14:24:02.845Z,114.67
2022-10-14T14:34:06.714Z,121.17
2022-10-14T14:44:25.219Z,116.90
2022-10-14T14:54:30.019Z,128.27
2022-10-14T15:04:36.275Z,123.27
2022-10-14T15:14:48.240Z,114.57
2022-10-14T15:25:12.066Z,112.57
2022-10-14T15:35:17.437Z,113.43
2022-10-14T15:45:22.098Z,106.17
2022-10-14T15:55:28.018Z,105.20
2022-10-14T16:05:32.699Z,107.43
2022-10-14T16:15:42.516Z,108.97
2022-10-14T16:25:50.130Z,103.80
2022-10-14T16:35:56.819Z,105.13
2022-10-14T16:46:03.731Z,116.77
2022-10-14T16:56:26.872Z,128.30
2022-10-14T17:06:32.722Z,114.17
2022-10-14T17:16:36.161Z,102.97
2022-10-14T17:26:40.773Z,109.50
2022-10-14T17:36:43.993Z,110.27
2022-10-14T17:46:48.805Z,110.77
2022-10-14T17:56:52.096Z,106.00
2022-10-14T18:06:57.036Z,110.67
2022-10-14T18:17:00.358Z,107.33
2022-10-14T18:27:05.409Z,101.00
2022-10-14T18:37:10.737Z,105.53
2022-10-14T18:47:15.407Z,110.07
2022-10-14T18:57:18.716Z,117.23
2022-10-14T19:07:23.408Z,113.00
2022-10-14T19:17:26.838Z,117.00
2022-10-14T19:27:32.140Z,121.03
2022-10-14T19:37:35.467Z,116.97
2022-10-14T19:47:40.130Z,129.17
2022-10-14T19:57:43.378Z,121.63
2022-10-14T20:07:48.483Z,126.07
2022-10-14T20:17:51.950Z,109.73
2022-10-14T20:27:57.149Z,111.03
2022-10-14T20:38:00.660Z,114.60
2022-10-14T20:48:05.746Z,111.23
2022-10-14T20:58:09.290Z,112.87
2022-10-14T21:08:13.948Z,113.90
2022-10-14T21:18:17.271Z,117.87
2022-10-14T21:28:21.873Z,117.10
2022-10-14T21:38:25.227Z,116.33
2022-10-14T21:48:29.929Z,109.57
2022-10-14T21:58:33.267Z,109.13
2022-10-14T22:08:40.839Z,110.60
2022-10-14T22:18:46.718Z,111.33
2022-10-14T22:28:51.788Z,109.33
2022-10-14T22:38:56.310Z,105.17
2022-10-14T22:49:02.108Z,109.87
2022-10-14T22:59:08.333Z,108.07
2022-10-14T23:09:12.939Z,105.80
2022-10-14T23:19:16.318Z,106.70
2022-10-14T23:29:21.064Z,104.83
2022-10-14T23:39:24.296Z,101.00
2022-10-14T23:49:28.871Z,101.53
2022-10-14T23:59:32.079Z,101.70
